Karditsa, Greece
Current Conditions -  °F | °C
As of 7:20 AM on Tuesday 23 Dec 2014 (Local Time) from LGBL Reporting Station
Clear Clear  
Wind Chill: 32°   Ceiling: Unl
Heat Index: 36°   Visibility: 6mi
Dew Point: 25°   Wind: 5mph
Humidity: 65%   Direction: 230°SW
Pressure: 30.27"   Gusts: NA
Location:  39.37°N, 21.92°E
Report Text: LGBL 230420Z 23004KT CAVOK 02/M04 Q1025
Loading
Personal Weather Stations






























Interactive Weather Map New forecast layout! Learn more

10-Day Weather Forecast

Advertisements
Track Severe Weather on mobile